TimeMDT,TemperatureF,Dew PointF,Humidity,Sea Level PressureIn,VisibilityMPH,Wind Direction,Wind SpeedMPH,Gust SpeedMPH,PrecipitationIn,Events,Conditions,WindDirDegrees,DateUTC
12:53 AM,55.0,46.9,74,29.70,10.0,South,4.6,-,N/A,,Clear,180,2013-05-28 06:53:00
1:53 AM,53.1,46.9,80,29.70,10.0,WSW,3.5,-,N/A,,Clear,250,2013-05-28 07:53:00
2:53 AM,51.1,46.9,86,29.71,10.0,WNW,4.6,-,N/A,,Clear,290,2013-05-28 08:53:00
3:53 AM,50.0,46.0,86,29.72,10.0,North,9.2,-,N/A,,Clear,350,2013-05-28 09:53:00
4:17 AM,50.0,46.4,87,29.77,10.0,NNE,3.5,-,N/A,,Scattered Clouds,30,2013-05-28 10:17:00
4:27 AM,51.8,46.4,82,29.77,10.0,NE,5.8,-,N/A,,Mostly Cloudy,50,2013-05-28 10:27:00
4:44 AM,53.6,48.2,82,29.77,10.0,NNE,6.9,-,N/A,,Overcast,30,2013-05-28 10:44:00
4:53 AM,52.0,51.1,97,29.73,1.0,North,5.8,-,N/A,,Overcast,10,2013-05-28 10:53:00
4:59 AM,53.6,51.8,94,29.78,0.2,North,3.5,-,N/A,Fog,Fog,350,2013-05-28 10:59:00
5:23 AM,53.6,53.6,100,29.81,0.5,Calm,Calm,-,N/A,Fog,Fog,0,2013-05-28 11:23:00
5:48 AM,53.6,53.6,100,29.81,0.2,Calm,Calm,-,N/A,Fog,Fog,0,2013-05-28 11:48:00
5:53 AM,55.0,54.0,96,29.76,0.2,Calm,Calm,-,N/A,Fog,Fog,0,2013-05-28 11:53:00
6:05 AM,55.4,53.6,94,29.81,0.5,SW,3.5,-,N/A,Fog,Fog,220,2013-05-28 12:05:00
6:31 AM,55.4,53.6,94,29.81,2.0,Calm,Calm,-,N/A,,Overcast,0,2013-05-28 12:31:00
6:43 AM,55.4,53.6,94,29.82,3.0,SW,3.5,-,N/A,,Overcast,230,2013-05-28 12:43:00
6:53 AM,55.0,54.0,96,29.78,3.0,SW,8.1,-,N/A,,Overcast,220,2013-05-28 12:53:00
6:56 AM,55.4,53.6,94,29.82,1.8,SW,9.2,-,N/A,,Overcast,220,2013-05-28 12:56:00
7:13 AM,55.4,53.6,94,29.82,3.0,SW,9.2,-,N/A,,Overcast,230,2013-05-28 13:13:00
7:37 AM,55.4,53.6,94,29.81,8.0,West,4.6,-,N/A,,Overcast,260,2013-05-28 13:37:00
7:53 AM,57.0,55.0,93,29.75,10.0,West,4.6,-,N/A,,Overcast,270,2013-05-28 13:53:00
8:34 AM,60.8,55.4,82,29.80,10.0,NE,8.1,-,N/A,,Overcast,40,2013-05-28 14:34:00
8:41 AM,60.8,55.4,82,29.79,10.0,NE,8.1,-,N/A,,Overcast,40,2013-05-28 14:41:00
8:53 AM,62.1,55.9,80,29.73,10.0,NE,6.9,-,N/A,,Overcast,40,2013-05-28 14:53:00
9:53 AM,66.0,55.9,70,29.70,10.0,East,5.8,-,N/A,,Mostly Cloudy,90,2013-05-28 15:53:00
10:04 AM,66.2,55.4,68,29.77,10.0,NE,4.6,-,N/A,,Scattered Clouds,50,2013-05-28 16:04:00
10:53 AM,71.1,55.9,59,29.69,10.0,East,9.2,-,N/A,,Clear,90,2013-05-28 16:53:00
11:53 AM,73.9,55.0,52,29.69,10.0,SSE,6.9,19.6,N/A,,Clear,150,2013-05-28 17:53:00
12:53 PM,77.0,53.1,43,29.67,10.0,SSE,10.4,-,N/A,,Clear,150,2013-05-28 18:53:00
1:53 PM,80.1,53.1,39,29.64,10.0,SE,12.7,20.7,N/A,,Clear,130,2013-05-28 19:53:00
2:53 PM,81.0,52.0,36,29.62,10.0,ESE,15.0,27.6,N/A,,Clear,120,2013-05-28 20:53:00
3:53 PM,81.0,48.9,33,29.59,10.0,ESE,19.6,26.5,N/A,,Clear,110,2013-05-28 21:53:00
4:53 PM,80.1,46.9,31,29.57,10.0,ESE,18.4,-,N/A,,Clear,120,2013-05-28 22:53:00
5:53 PM,77.0,53.1,43,29.54,10.0,ESE,19.6,-,N/A,,Clear,120,2013-05-28 23:53:00
6:53 PM,75.0,57.9,55,29.55,10.0,ESE,15.0,-,N/A,,Clear,110,2013-05-29 00:53:00
7:53 PM,72.0,59.0,64,29.52,10.0,East,16.1,-,N/A,,Clear,90,2013-05-29 01:53:00
8:53 PM,70.0,61.0,73,29.52,10.0,East,18.4,26.5,N/A,,Clear,100,2013-05-29 02:53:00
9:53 PM,68.0,62.1,81,29.56,10.0,ESE,15.0,-,N/A,,Clear,110,2013-05-29 03:53:00
10:40 PM,69.8,62.6,78,29.61,10.0,SE,18.4,26.5,N/A,,Overcast,130,2013-05-29 04:40:00
10:53 PM,69.1,64.0,84,29.51,10.0,SE,18.4,24.2,N/A,,Overcast,130,2013-05-29 04:53:00
11:53 PM,64.9,57.9,78,29.52,10.0,NNE,13.8,25.3,N/A,,Overcast,30,2013-05-29 05:53:00